sensor_id;sensor_type;location;lat;lon;timestamp;pressure;altitude;pressure_sealevel;temperature;humidity
78841;BME280;68379;47.190;27.558;2023-06-19T00:01:06;99766.38;;;16.44;88.49
78841;BME280;68379;47.190;27.558;2023-06-19T00:03:41;99762.70;;;16.42;88.41
78841;BME280;68379;47.190;27.558;2023-06-19T00:06:10;99755.85;;;16.41;88.76
78841;BME280;68379;47.190;27.558;2023-06-19T00:08:40;99756.52;;;16.38;88.68
78841;BME280;68379;47.190;27.558;2023-06-19T00:11:10;99756.23;;;16.37;88.40
78841;BME280;68379;47.190;27.558;2023-06-19T00:13:39;99755.60;;;16.36;88.52
78841;BME280;68379;47.190;27.558;2023-06-19T00:16:09;99758.23;;;16.34;89.38
78841;BME280;68379;47.190;27.558;2023-06-19T00:18:38;99760.52;;;16.32;88.71
78841;BME280;68379;47.190;27.558;2023-06-19T00:21:08;99758.33;;;16.30;88.89
78841;BME280;68379;47.190;27.558;2023-06-19T00:23:37;99754.04;;;16.28;88.47
78841;BME280;68379;47.190;27.558;2023-06-19T00:26:07;99752.20;;;16.26;88.43
78841;BME280;68379;47.190;27.558;2023-06-19T00:28:36;99755.23;;;16.26;88.00
78841;BME280;68379;47.190;27.558;2023-06-19T00:31:07;99757.23;;;16.25;88.51
78841;BME280;68379;47.190;27.558;2023-06-19T00:33:37;99757.52;;;16.24;88.47
78841;BME280;68379;47.190;27.558;2023-06-19T00:36:11;99755.11;;;16.22;88.35
78841;BME280;68379;47.190;27.558;2023-06-19T00:38:41;99750.85;;;16.22;88.26
78841;BME280;68379;47.190;27.558;2023-06-19T00:41:10;99752.46;;;16.22;88.22
78841;BME280;68379;47.190;27.558;2023-06-19T00:43:39;99753.73;;;16.21;88.18
78841;BME280;68379;47.190;27.558;2023-06-19T00:46:08;99756.29;;;16.20;88.23
78841;BME280;68379;47.190;27.558;2023-06-19T00:48:37;99755.98;;;16.20;87.85
78841;BME280;68379;47.190;27.558;2023-06-19T00:51:07;99751.73;;;16.19;87.99
78841;BME280;68379;47.190;27.558;2023-06-19T00:53:36;99749.33;;;16.17;87.86
78841;BME280;68379;47.190;27.558;2023-06-19T00:56:06;99752.73;;;16.17;87.97
78841;BME280;68379;47.190;27.558;2023-06-19T00:58:35;99757.96;;;16.16;88.10
78841;BME280;68379;47.190;27.558;2023-06-19T01:01:04;99766.23;;;16.15;87.97
78841;BME280;68379;47.190;27.558;2023-06-19T01:03:33;99763.80;;;16.14;88.13
78841;BME280;68379;47.190;27.558;2023-06-19T01:06:08;99762.70;;;16.12;88.17
78841;BME280;68379;47.190;27.558;2023-06-19T01:08:54;99763.41;;;16.09;88.52
78841;BME280;68379;47.190;27.558;2023-06-19T01:11:30;99764.78;;;16.07;88.35
78841;BME280;68379;47.190;27.558;2023-06-19T01:14:06;99761.87;;;16.05;88.49
78841;BME280;68379;47.190;27.558;2023-06-19T01:16:36;99760.54;;;16.04;88.43
78841;BME280;68379;47.190;27.558;2023-06-19T01:19:09;99762.44;;;16.02;88.20
78841;BME280;68379;47.190;27.558;2023-06-19T01:21:38;99760.17;;;16.01;88.52
78841;BME280;68379;47.190;27.558;2023-06-19T01:24:07;99757.95;;;16.00;88.45
78841;BME280;68379;47.190;27.558;2023-06-19T01:26:37;99755.04;;;15.98;88.12
78841;BME280;68379;47.190;27.558;2023-06-19T01:29:06;99752.82;;;15.96;88.23
78841;BME280;68379;47.190;27.558;2023-06-19T01:31:38;99749.70;;;15.95;88.15
78841;BME280;68379;47.190;27.558;2023-06-19T01:34:11;99750.46;;;15.94;88.01
78841;BME280;68379;47.190;27.558;2023-06-19T01:36:42;99749.82;;;15.93;88.08
78841;BME280;68379;47.190;27.558;2023-06-19T01:39:12;99749.34;;;15.92;88.15
78841;BME280;68379;47.190;27.558;2023-06-19T01:41:43;99754.31;;;15.92;87.96
78841;BME280;68379;47.190;27.558;2023-06-19T01:44:13;99750.23;;;15.92;87.91
78841;BME280;68379;47.190;27.558;2023-06-19T01:46:42;99742.06;;;15.91;87.93
78841;BME280;68379;47.190;27.558;2023-06-19T01:49:12;99744.44;;;15.91;87.90
78841;BME280;68379;47.190;27.558;2023-06-19T01:51:42;99743.77;;;15.90;87.80
78841;BME280;68379;47.190;27.558;2023-06-19T01:54:11;99750.02;;;15.90;87.70
78841;BME280;68379;47.190;27.558;2023-06-19T01:56:40;99753.14;;;15.91;87.55
78841;BME280;68379;47.190;27.558;2023-06-19T01:59:09;99758.66;;;15.91;87.70
78841;BME280;68379;47.190;27.558;2023-06-19T02:01:38;99761.30;;;15.92;87.57
78841;BME280;68379;47.190;27.558;2023-06-19T02:04:07;99764.25;;;15.93;87.46
78841;BME280;68379;47.190;27.558;2023-06-19T02:06:36;99762.60;;;15.94;87.53
78841;BME280;68379;47.190;27.558;2023-06-19T02:09:06;99765.48;;;15.96;87.54
78841;BME280;68379;47.190;27.558;2023-06-19T02:11:36;99769.30;;;15.97;87.42
78841;BME280;68379;47.190;27.558;2023-06-19T02:14:05;99769.10;;;15.98;87.36
78841;BME280;68379;47.190;27.558;2023-06-19T02:16:34;99775.31;;;15.99;87.45
78841;BME280;68379;47.190;27.558;2023-06-19T02:19:03;99776.02;;;15.99;87.32
78841;BME280;68379;47.190;27.558;2023-06-19T02:21:33;99777.19;;;16.00;87.26
78841;BME280;68379;47.190;27.558;2023-06-19T02:24:02;99783.12;;;16.02;87.11
78841;BME280;68379;47.190;27.558;2023-06-19T02:26:33;99783.35;;;16.04;87.45
78841;BME280;68379;47.190;27.558;2023-06-19T02:29:02;99783.75;;;16.06;87.22
78841;BME280;68379;47.190;27.558;2023-06-19T02:31:31;99784.80;;;16.09;87.37
78841;BME280;68379;47.190;27.558;2023-06-19T02:34:00;99780.67;;;16.12;87.25
78841;BME280;68379;47.190;27.558;2023-06-19T02:36:29;99781.84;;;16.13;87.09
78841;BME280;68379;47.190;27.558;2023-06-19T02:38:58;99784.63;;;16.14;87.14
78841;BME280;68379;47.190;27.558;2023-06-19T02:41:28;99785.12;;;16.15;87.15
78841;BME280;68379;47.190;27.558;2023-06-19T02:43:57;99778.50;;;16.13;87.10
78841;BME280;68379;47.190;27.558;2023-06-19T02:46:26;99783.27;;;16.16;87.27
78841;BME280;68379;47.190;27.558;2023-06-19T02:48:55;99786.84;;;16.19;87.41
78841;BME280;68379;47.190;27.558;2023-06-19T02:51:24;99788.60;;;16.19;87.46
78841;BME280;68379;47.190;27.558;2023-06-19T02:53:53;99788.06;;;16.16;87.80
78841;BME280;68379;47.190;27.558;2023-06-19T02:56:23;99788.41;;;16.11;88.05
78841;BME280;68379;47.190;27.558;2023-06-19T02:58:53;99790.98;;;16.04;88.36
78841;BME280;68379;47.190;27.558;2023-06-19T03:01:22;99800.13;;;15.98;88.59
78841;BME280;68379;47.190;27.558;2023-06-19T03:03:51;99803.50;;;15.92;88.75
78841;BME280;68379;47.190;27.558;2023-06-19T03:06:20;99809.65;;;15.91;88.81
78841;BME280;68379;47.190;27.558;2023-06-19T03:08:49;99809.88;;;15.90;88.84
78841;BME280;68379;47.190;27.558;2023-06-19T03:11:18;99803.69;;;15.89;89.02
78841;BME280;68379;47.190;27.558;2023-06-19T03:13:49;99791.52;;;15.90;89.10
78841;BME280;68379;47.190;27.558;2023-06-19T03:16:19;99784.77;;;15.92;89.21
78841;BME280;68379;47.190;27.558;2023-06-19T03:18:48;99783.19;;;15.92;89.50
78841;BME280;68379;47.190;27.558;2023-06-19T03:21:18;99783.09;;;15.93;89.66
78841;BME280;68379;47.190;27.558;2023-06-19T03:23:47;99783.41;;;15.94;89.20
78841;BME280;68379;47.190;27.558;2023-06-19T03:26:17;99785.12;;;15.95;89.13
78841;BME280;68379;47.190;27.558;2023-06-19T03:28:47;99786.33;;;15.96;89.48
78841;BME280;68379;47.190;27.558;2023-06-19T03:31:16;99781.73;;;15.95;89.23
78841;BME280;68379;47.190;27.558;2023-06-19T03:33:45;99776.77;;;15.95;89.08
78841;BME280;68379;47.190;27.558;2023-06-19T03:36:15;99771.60;;;15.95;89.39
78841;BME280;68379;47.190;27.558;2023-06-19T03:38:44;99768.35;;;15.96;89.46
78841;BME280;68379;47.190;27.558;2023-06-19T03:41:13;99772.34;;;15.98;89.13
78841;BME280;68379;47.190;27.558;2023-06-19T03:43:42;99767.79;;;16.02;89.17
78841;BME280;68379;47.190;27.558;2023-06-19T03:46:11;99768.10;;;16.08;89.09
78841;BME280;68379;47.190;27.558;2023-06-19T03:48:41;99758.17;;;16.15;88.91
78841;BME280;68379;47.190;27.558;2023-06-19T03:51:09;99751.29;;;16.20;89.10
78841;BME280;68379;47.190;27.558;2023-06-19T03:53:39;99753.86;;;16.25;89.08
78841;BME280;68379;47.190;27.558;2023-06-19T03:56:09;99757.33;;;16.29;89.11
78841;BME280;68379;47.190;27.558;2023-06-19T03:58:38;99765.36;;;16.34;88.75
78841;BME280;68379;47.190;27.558;2023-06-19T04:01:07;99763.95;;;16.42;88.71
78841;BME280;68379;47.190;27.558;2023-06-19T04:03:36;99763.84;;;16.49;88.66
78841;BME280;68379;47.190;27.558;2023-06-19T04:06:06;99758.01;;;16.54;88.42
78841;BME280;68379;47.190;27.558;2023-06-19T04:08:35;99761.63;;;16.59;88.19
78841;BME280;68379;47.190;27.558;2023-06-19T04:11:05;99760.70;;;16.62;87.87
78841;BME280;68379;47.190;27.558;2023-06-19T04:13:34;99763.69;;;16.68;88.02
78841;BME280;68379;47.190;27.558;2023-06-19T04:16:04;99767.98;;;16.74;87.85
78841;BME280;68379;47.190;27.558;2023-06-19T04:18:33;99765.17;;;16.79;87.87
78841;BME280;68379;47.190;27.558;2023-06-19T04:21:03;99763.20;;;16.84;87.68
78841;BME280;68379;47.190;27.558;2023-06-19T04:23:33;99760.48;;;16.90;87.59
78841;BME280;68379;47.190;27.558;2023-06-19T04:26:02;99761.43;;;16.92;87.79
78841;BME280;68379;47.190;27.558;2023-06-19T04:28:32;99760.75;;;16.94;88.04
78841;BME280;68379;47.190;27.558;2023-06-19T04:31:01;99761.02;;;17.01;87.98
78841;BME280;68379;47.190;27.558;2023-06-19T04:33:30;99757.58;;;17.10;87.75
78841;BME280;68379;47.190;27.558;2023-06-19T04:36:00;99758.61;;;17.21;87.23
78841;BME280;68379;47.190;27.558;2023-06-19T04:38:30;99759.05;;;17.28;87.31
78841;BME280;68379;47.190;27.558;2023-06-19T04:40:59;99766.52;;;17.30;87.30
78841;BME280;68379;47.190;27.558;2023-06-19T04:43:28;99764.95;;;17.30;86.95
78841;BME280;68379;47.190;27.558;2023-06-19T04:45:58;99772.16;;;17.26;86.79
78841;BME280;68379;47.190;27.558;2023-06-19T04:48:27;99773.61;;;17.26;87.05
78841;BME280;68379;47.190;27.558;2023-06-19T04:50:58;99780.30;;;17.22;86.84
78841;BME280;68379;47.190;27.558;2023-06-19T04:53:29;99785.27;;;17.20;86.92
78841;BME280;68379;47.190;27.558;2023-06-19T04:55:59;99790.80;;;17.20;87.08
78841;BME280;68379;47.190;27.558;2023-06-19T04:58:28;99799.08;;;17.21;86.89
78841;BME280;68379;47.190;27.558;2023-06-19T05:00:57;99804.37;;;17.28;87.22
78841;BME280;68379;47.190;27.558;2023-06-19T05:03:26;99810.27;;;17.30;87.25
78841;BME280;68379;47.190;27.558;2023-06-19T05:05:56;99817.35;;;17.34;87.44
78841;BME280;68379;47.190;27.558;2023-06-19T05:08:25;99823.30;;;17.38;87.18
78841;BME280;68379;47.190;27.558;2023-06-19T05:10:54;99826.06;;;17.39;87.16
78841;BME280;68379;47.190;27.558;2023-06-19T05:13:23;99825.02;;;17.36;86.80
78841;BME280;68379;47.190;27.558;2023-06-19T05:15:52;99828.63;;;17.33;87.22
78841;BME280;68379;47.190;27.558;2023-06-19T05:18:21;99835.55;;;17.34;87.26
78841;BME280;68379;47.190;27.558;2023-06-19T05:20:51;99838.61;;;17.31;87.15
78841;BME280;68379;47.190;27.558;2023-06-19T05:23:21;99835.79;;;17.31;87.04
78841;BME280;68379;47.190;27.558;2023-06-19T05:25:50;99828.61;;;17.34;87.05
78841;BME280;68379;47.190;27.558;2023-06-19T05:28:19;99830.00;;;17.39;86.84
78841;BME280;68379;47.190;27.558;2023-06-19T05:30:48;99832.47;;;17.40;86.91
78841;BME280;68379;47.190;27.558;2023-06-19T05:33:18;99834.02;;;17.41;87.37
78841;BME280;68379;47.190;27.558;2023-06-19T05:35:47;99834.24;;;17.43;87.29
78841;BME280;68379;47.190;27.558;2023-06-19T05:38:21;99831.01;;;17.43;87.58
78841;BME280;68379;47.190;27.558;2023-06-19T05:40:54;99820.36;;;17.42;87.17
78841;BME280;68379;47.190;27.558;2023-06-19T05:43:23;99816.31;;;17.38;87.03
78841;BME280;68379;47.190;27.558;2023-06-19T05:45:53;99815.29;;;17.35;87.25
78841;BME280;68379;47.190;27.558;2023-06-19T05:48:24;99810.17;;;17.32;86.96
78841;BME280;68379;47.190;27.558;2023-06-19T05:50:53;99809.98;;;17.29;87.19
78841;BME280;68379;47.190;27.558;2023-06-19T05:53:22;99813.32;;;17.30;86.80
78841;BME280;68379;47.190;27.558;2023-06-19T05:55:51;99824.64;;;17.32;86.75
78841;BME280;68379;47.190;27.558;2023-06-19T05:58:20;99830.27;;;17.35;87.11
78841;BME280;68379;47.190;27.558;2023-06-19T06:00:50;99840.48;;;17.43;86.78
78841;BME280;68379;47.190;27.558;2023-06-19T06:03:19;99845.93;;;17.52;86.93
78841;BME280;68379;47.190;27.558;2023-06-19T06:05:48;99846.92;;;17.61;86.79
78841;BME280;68379;47.190;27.558;2023-06-19T06:08:18;99841.63;;;17.66;86.54
78841;BME280;68379;47.190;27.558;2023-06-19T06:10:48;99842.86;;;17.71;86.52
78841;BME280;68379;47.190;27.558;2023-06-19T06:13:16;99844.52;;;17.78;86.65
78841;BME280;68379;47.190;27.558;2023-06-19T06:15:46;99842.27;;;17.82;86.27
78841;BME280;68379;47.190;27.558;2023-06-19T06:18:15;99834.89;;;17.80;85.81
78841;BME280;68379;47.190;27.558;2023-06-19T06:20:44;99827.03;;;17.78;85.84
78841;BME280;68379;47.190;27.558;2023-06-19T06:23:13;99809.23;;;17.74;86.08
78841;BME280;68379;47.190;27.558;2023-06-19T06:25:43;99794.98;;;17.71;86.19
78841;BME280;68379;47.190;27.558;2023-06-19T06:28:14;99784.51;;;17.70;86.17
78841;BME280;68379;47.190;27.558;2023-06-19T06:30:43;99783.92;;;17.70;86.10
78841;BME280;68379;47.190;27.558;2023-06-19T06:33:12;99792.67;;;17.75;85.89
78841;BME280;68379;47.190;27.558;2023-06-19T06:35:41;99813.27;;;17.83;86.04
78841;BME280;68379;47.190;27.558;2023-06-19T06:38:11;99821.68;;;17.96;86.18
78841;BME280;68379;47.190;27.558;2023-06-19T06:40:40;99824.71;;;18.14;85.91
78841;BME280;68379;47.190;27.558;2023-06-19T06:43:11;99825.38;;;18.29;85.21
78841;BME280;68379;47.190;27.558;2023-06-19T06:45:41;99826.13;;;18.39;84.79
78841;BME280;68379;47.190;27.558;2023-06-19T06:48:10;99824.02;;;18.51;84.74
78841;BME280;68379;47.190;27.558;2023-06-19T06:50:42;99823.42;;;18.66;84.75
78841;BME280;68379;47.190;27.558;2023-06-19T06:53:11;99820.12;;;18.80;83.30
78841;BME280;68379;47.190;27.558;2023-06-19T06:55:41;99823.84;;;18.97;83.71
78841;BME280;68379;47.190;27.558;2023-06-19T06:58:10;99826.64;;;19.22;83.95
78841;BME280;68379;47.190;27.558;2023-06-19T07:00:41;99830.87;;;19.47;83.78
78841;BME280;68379;47.190;27.558;2023-06-19T07:03:10;99835.26;;;19.64;83.36
78841;BME280;68379;47.190;27.558;2023-06-19T07:05:39;99839.17;;;19.79;83.00
78841;BME280;68379;47.190;27.558;2023-06-19T07:08:08;99840.71;;;19.94;82.31
78841;BME280;68379;47.190;27.558;2023-06-19T07:10:37;99839.14;;;20.05;81.62
78841;BME280;68379;47.190;27.558;2023-06-19T07:13:06;99834.38;;;20.04;79.78
78841;BME280;68379;47.190;27.558;2023-06-19T07:15:36;99835.16;;;20.03;80.80
78841;BME280;68379;47.190;27.558;2023-06-19T07:18:05;99835.38;;;20.09;81.22
78841;BME280;68379;47.190;27.558;2023-06-19T07:20:34;99831.23;;;20.21;81.41
78841;BME280;68379;47.190;27.558;2023-06-19T07:23:04;99832.34;;;20.38;81.34
78841;BME280;68379;47.190;27.558;2023-06-19T07:25:33;99833.46;;;20.47;79.92
78841;BME280;68379;47.190;27.558;2023-06-19T07:28:02;99832.55;;;20.43;79.18
78841;BME280;68379;47.190;27.558;2023-06-19T07:30:32;99834.29;;;20.47;79.06
78841;BME280;68379;47.190;27.558;2023-06-19T07:33:01;99831.62;;;20.45;79.43
78841;BME280;68379;47.190;27.558;2023-06-19T07:35:30;99836.08;;;20.48;79.94
78841;BME280;68379;47.190;27.558;2023-06-19T07:37:59;99841.34;;;20.45;78.16
78841;BME280;68379;47.190;27.558;2023-06-19T07:40:28;99840.48;;;20.40;78.00
78841;BME280;68379;47.190;27.558;2023-06-19T07:42:57;99840.27;;;20.35;78.31
78841;BME280;68379;47.190;27.558;2023-06-19T07:45:27;99841.39;;;20.42;78.07
78841;BME280;68379;47.190;27.558;2023-06-19T07:47:56;99844.09;;;20.58;78.42
78841;BME280;68379;47.190;27.558;2023-06-19T07:50:25;99845.89;;;20.66;77.80
78841;BME280;68379;47.190;27.558;2023-06-19T07:52:55;99848.59;;;20.73;77.90
78841;BME280;68379;47.190;27.558;2023-06-19T07:55:24;99852.85;;;20.80;77.83
78841;BME280;68379;47.190;27.558;2023-06-19T07:57:53;99852.77;;;20.96;77.68
78841;BME280;68379;47.190;27.558;2023-06-19T08:00:25;99852.35;;;21.08;75.81
78841;BME280;68379;47.190;27.558;2023-06-19T08:02:54;99855.11;;;21.20;76.62
78841;BME280;68379;47.190;27.558;2023-06-19T08:05:24;99856.58;;;21.37;76.55
78841;BME280;68379;47.190;27.558;2023-06-19T08:07:53;99860.35;;;21.46;76.82
78841;BME280;68379;47.190;27.558;2023-06-19T08:10:22;99862.01;;;21.50;76.49
78841;BME280;68379;47.190;27.558;2023-06-19T08:12:51;99863.10;;;21.45;73.91
78841;BME280;68379;47.190;27.558;2023-06-19T08:15:20;99862.30;;;21.33;72.45
78841;BME280;68379;47.190;27.558;2023-06-19T08:17:49;99861.15;;;21.41;74.20
78841;BME280;68379;47.190;27.558;2023-06-19T08:20:18;99865.05;;;21.69;74.64
78841;BME280;68379;47.190;27.558;2023-06-19T08:22:48;99861.30;;;21.83;72.16
78841;BME280;68379;47.190;27.558;2023-06-19T08:25:19;99868.63;;;21.79;72.50
78841;BME280;68379;47.190;27.558;2023-06-19T08:27:49;99872.39;;;21.82;72.64
78841;BME280;68379;47.190;27.558;2023-06-19T08:30:18;99869.25;;;21.91;72.89
78841;BME280;68379;47.190;27.558;2023-06-19T08:32:50;99867.45;;;22.04;72.91
78841;BME280;68379;47.190;27.558;2023-06-19T08:35:20;99868.86;;;22.09;70.82
78841;BME280;68379;47.190;27.558;2023-06-19T08:37:48;99868.37;;;22.16;72.24
78841;BME280;68379;47.190;27.558;2023-06-19T08:40:19;99870.73;;;22.30;70.65
78841;BME280;68379;47.190;27.558;2023-06-19T08:42:48;99865.56;;;22.52;71.17
78841;BME280;68379;47.190;27.558;2023-06-19T08:45:18;99870.27;;;22.78;70.68
78841;BME280;68379;47.190;27.558;2023-06-19T08:47:49;99869.52;;;23.01;68.69
78841;BME280;68379;47.190;27.558;2023-06-19T08:50:19;99866.99;;;23.07;68.57
78841;BME280;68379;47.190;27.558;2023-06-19T08:52:47;99868.02;;;23.03;68.06
78841;BME280;68379;47.190;27.558;2023-06-19T08:55:16;99865.73;;;22.99;68.96
78841;BME280;68379;47.190;27.558;2023-06-19T08:57:49;99863.41;;;23.04;68.59
78841;BME280;68379;47.190;27.558;2023-06-19T09:00:28;99867.77;;;23.06;68.68
78841;BME280;68379;47.190;27.558;2023-06-19T09:03:02;99872.52;;;23.11;69.14
78841;BME280;68379;47.190;27.558;2023-06-19T09:05:31;99870.28;;;23.12;69.27
78841;BME280;68379;47.190;27.558;2023-06-19T09:08:01;99875.45;;;23.09;69.04
78841;BME280;68379;47.190;27.558;2023-06-19T09:10:31;99875.45;;;23.03;68.30
78841;BME280;68379;47.190;27.558;2023-06-19T09:13:01;99874.96;;;22.96;67.48
78841;BME280;68379;47.190;27.558;2023-06-19T09:15:31;99874.50;;;22.83;68.98
78841;BME280;68379;47.190;27.558;2023-06-19T09:18:02;99876.80;;;22.84;69.80
78841;BME280;68379;47.190;27.558;2023-06-19T09:20:32;99876.08;;;22.83;68.97
78841;BME280;68379;47.190;27.558;2023-06-19T09:23:01;99874.38;;;22.76;68.97
78841;BME280;68379;47.190;27.558;2023-06-19T09:25:30;99869.48;;;22.73;69.71
78841;BME280;68379;47.190;27.558;2023-06-19T09:27:59;99872.89;;;22.63;69.59
78841;BME280;68379;47.190;27.558;2023-06-19T09:30:28;99870.39;;;22.48;70.23
78841;BME280;68379;47.190;27.558;2023-06-19T09:33:07;99872.09;;;22.33;70.70
78841;BME280;68379;47.190;27.558;2023-06-19T09:35:36;99869.08;;;22.17;70.47
78841;BME280;68379;47.190;27.558;2023-06-19T09:38:05;99859.50;;;21.96;70.84
78841;BME280;68379;47.190;27.558;2023-06-19T09:40:35;99860.75;;;21.77;71.38
78841;BME280;68379;47.190;27.558;2023-06-19T09:43:05;99855.85;;;21.59;71.66
78841;BME280;68379;47.190;27.558;2023-06-19T09:45:36;99858.94;;;21.41;72.09
78841;BME280;68379;47.190;27.558;2023-06-19T09:48:07;99859.31;;;21.24;72.56
78841;BME280;68379;47.190;27.558;2023-06-19T09:50:42;99858.77;;;21.04;73.58
78841;BME280;68379;47.190;27.558;2023-06-19T09:53:11;99864.17;;;20.84;74.38
78841;BME280;68379;47.190;27.558;2023-06-19T09:55:41;99862.56;;;20.66;75.15
78841;BME280;68379;47.190;27.558;2023-06-19T09:58:11;99860.11;;;20.52;75.75
78841;BME280;68379;47.190;27.558;2023-06-19T10:00:40;99857.31;;;20.40;76.48
78841;BME280;68379;47.190;27.558;2023-06-19T10:03:13;99855.99;;;20.27;77.02
78841;BME280;68379;47.190;27.558;2023-06-19T10:05:44;99855.71;;;20.22;77.66
78841;BME280;68379;47.190;27.558;2023-06-19T10:08:14;99851.95;;;20.22;77.90
78841;BME280;68379;47.190;27.558;2023-06-19T10:10:48;99848.54;;;20.26;78.29
78841;BME280;68379;47.190;27.558;2023-06-19T10:13:17;99846.27;;;20.28;78.38
78841;BME280;68379;47.190;27.558;2023-06-19T10:15:47;99842.14;;;20.28;78.55
78841;BME280;68379;47.190;27.558;2023-06-19T10:18:17;99841.05;;;20.30;78.52
78841;BME280;68379;47.190;27.558;2023-06-19T10:20:47;99839.92;;;20.33;78.64
78841;BME280;68379;47.190;27.558;2023-06-19T10:23:17;99838.74;;;20.39;78.64
78841;BME280;68379;47.190;27.558;2023-06-19T10:25:48;99834.32;;;20.33;78.59
78841;BME280;68379;47.190;27.558;2023-06-19T10:28:19;99836.23;;;20.28;78.85
78841;BME280;68379;47.190;27.558;2023-06-19T10:30:54;99835.26;;;20.20;78.99
78841;BME280;68379;47.190;27.558;2023-06-19T10:33:24;99834.10;;;20.12;79.46
78841;BME280;68379;47.190;27.558;2023-06-19T10:35:53;99831.31;;;20.06;79.35
78841;BME280;68379;47.190;27.558;2023-06-19T10:38:22;99830.59;;;19.99;79.57
78841;BME280;68379;47.190;27.558;2023-06-19T10:40:52;99824.70;;;20.01;80.42
78841;BME280;68379;47.190;27.558;2023-06-19T10:43:22;99824.07;;;20.05;80.34
78841;BME280;68379;47.190;27.558;2023-06-19T10:45:53;99823.14;;;20.03;80.20
78841;BME280;68379;47.190;27.558;2023-06-19T10:48:24;99819.66;;;19.97;80.04
78841;BME280;68379;47.190;27.558;2023-06-19T10:50:55;99821.14;;;19.89;80.14
78841;BME280;68379;47.190;27.558;2023-06-19T10:53:26;99814.16;;;19.85;80.19
78841;BME280;68379;47.190;27.558;2023-06-19T10:55:58;99812.96;;;19.86;80.55
78841;BME280;68379;47.190;27.558;2023-06-19T10:58:28;99811.23;;;19.88;80.86
78841;BME280;68379;47.190;27.558;2023-06-19T11:00:57;99809.35;;;19.87;81.05
78841;BME280;68379;47.190;27.558;2023-06-19T11:03:27;99809.56;;;19.86;81.20
78841;BME280;68379;47.190;27.558;2023-06-19T11:05:56;99807.98;;;19.90;81.20
78841;BME280;68379;47.190;27.558;2023-06-19T11:08:25;99811.55;;;19.98;80.75
78841;BME280;68379;47.190;27.558;2023-06-19T11:10:54;99806.59;;;20.04;80.89
78841;BME280;68379;47.190;27.558;2023-06-19T11:13:26;99800.17;;;20.08;80.43
78841;BME280;68379;47.190;27.558;2023-06-19T11:15:55;99800.73;;;20.07;80.25
78841;BME280;68379;47.190;27.558;2023-06-19T11:18:27;99795.21;;;20.07;80.37
78841;BME280;68379;47.190;27.558;2023-06-19T11:20:56;99795.92;;;20.07;79.92
78841;BME280;68379;47.190;27.558;2023-06-19T11:23:30;99796.02;;;20.08;79.89
78841;BME280;68379;47.190;27.558;2023-06-19T11:26:04;99798.55;;;20.16;80.23
78841;BME280;68379;47.190;27.558;2023-06-19T11:28:34;99798.23;;;20.29;79.90
78841;BME280;68379;47.190;27.558;2023-06-19T11:31:04;99793.82;;;20.49;80.02
78841;BME280;68379;47.190;27.558;2023-06-19T11:33:33;99791.13;;;20.73;79.43
78841;BME280;68379;47.190;27.558;2023-06-19T11:36:03;99789.86;;;20.91;78.65
78841;BME280;68379;47.190;27.558;2023-06-19T11:38:32;99788.89;;;20.96;78.15
78841;BME280;68379;47.190;27.558;2023-06-19T11:41:03;99788.61;;;21.01;78.14
78841;BME280;68379;47.190;27.558;2023-06-19T11:43:34;99787.60;;;21.13;78.20
78841;BME280;68379;47.190;27.558;2023-06-19T11:46:05;99783.51;;;21.26;77.55
78841;BME280;68379;47.190;27.558;2023-06-19T11:48:38;99783.17;;;21.34;77.47
78841;BME280;68379;47.190;27.558;2023-06-19T11:51:08;99779.97;;;21.44;76.44
78841;BME280;68379;47.190;27.558;2023-06-19T11:53:37;99782.23;;;21.53;76.67
78841;BME280;68379;47.190;27.558;2023-06-19T11:56:06;99782.37;;;21.60;76.18
78841;BME280;68379;47.190;27.558;2023-06-19T11:58:35;99781.44;;;21.71;76.48
78841;BME280;68379;47.190;27.558;2023-06-19T12:01:04;99777.88;;;21.85;76.71
78841;BME280;68379;47.190;27.558;2023-06-19T12:03:33;99772.06;;;22.02;74.99
78841;BME280;68379;47.190;27.558;2023-06-19T12:06:02;99772.67;;;22.14;75.33
78841;BME280;68379;47.190;27.558;2023-06-19T12:08:31;99769.35;;;22.33;75.29
78841;BME280;68379;47.190;27.558;2023-06-19T12:11:01;99759.92;;;22.44;73.24
78841;BME280;68379;47.190;27.558;2023-06-19T12:13:31;99757.67;;;22.53;72.82
78841;BME280;68379;47.190;27.558;2023-06-19T12:16:00;99759.16;;;22.70;72.51
78841;BME280;68379;47.190;27.558;2023-06-19T12:18:29;99760.09;;;22.89;72.55
78841;BME280;68379;47.190;27.558;2023-06-19T12:21:01;99759.41;;;23.05;71.42
78841;BME280;68379;47.190;27.558;2023-06-19T12:23:31;99755.29;;;23.18;70.71
78841;BME280;68379;47.190;27.558;2023-06-19T12:25:59;99749.44;;;23.48;70.15
78841;BME280;68379;47.190;27.558;2023-06-19T12:28:29;99744.09;;;23.80;70.43
78841;BME280;68379;47.190;27.558;2023-06-19T12:30:58;99743.02;;;24.04;70.03
78841;BME280;68379;47.190;27.558;2023-06-19T12:33:27;99740.79;;;24.28;67.39
78841;BME280;68379;47.190;27.558;2023-06-19T12:36:01;99738.98;;;24.56;65.10
78841;BME280;68379;47.190;27.558;2023-06-19T12:38:30;99737.75;;;24.70;62.95
78841;BME280;68379;47.190;27.558;2023-06-19T12:41:00;99733.15;;;24.77;62.73
78841;BME280;68379;47.190;27.558;2023-06-19T12:43:29;99736.40;;;24.84;63.07
78841;BME280;68379;47.190;27.558;2023-06-19T12:46:00;99734.82;;;24.85;62.61
78841;BME280;68379;47.190;27.558;2023-06-19T12:48:29;99732.70;;;24.97;64.26
78841;BME280;68379;47.190;27.558;2023-06-19T12:50:58;99732.07;;;25.30;61.75
78841;BME280;68379;47.190;27.558;2023-06-19T12:53:27;99734.58;;;25.53;61.34
78841;BME280;68379;47.190;27.558;2023-06-19T12:55:59;99732.64;;;25.75;61.97
78841;BME280;68379;47.190;27.558;2023-06-19T12:58:28;99730.50;;;25.89;61.13
78841;BME280;68379;47.190;27.558;2023-06-19T13:00:57;99729.86;;;26.19;61.96
78841;BME280;68379;47.190;27.558;2023-06-19T13:03:26;99728.07;;;26.29;57.42